Aeroporto :
LOGIN :

Iscrizione | Disclaimer

   EN    FR    IT 

 










Sommario :    VFR   VFR Marginale   IFR   IFR Intensivo   IFR Molto Intensivo
Visibilità : 
Base nubi : 
>= 8 km
>= 3000ft
5 / 8 km
1000 / 3000 ft
1500m / 5 km
500 / 1000 ft
800 / 1500m
200 / 500 ft
< 800m
< 200 ft
Simboli :   Temporali  Nebbia  Neve Forte  Precipitazioni Forti  Vento > 20 kt
SIGMETs :   Varie  Temporali  Ghiacco  Turbolenza  Onda orograficha  Ceneri Vulcaniche






- Altitudine del aeroporto : 1649 ft
- Codice IATA : HHN


EDFH - Frankfurt-Hahn Rhineland-Palatinate

ULTIMO METAR :
  • 150720Z 10007KT 030V140 CAVOK 01/M01 Q0994

METARs OBSOLETI :
  • 150650Z 09006KT 040V130 CAVOK 01/M01 Q0994
  • 150620Z 10006KT 040V140 CAVOK 01/M01 Q0994
  • 150550Z 10007KT 060V140 CAVOK 01/M01 Q0995
  • 150520Z 09008KT 050V130 CAVOK 01/M01 Q0994
  • 150450Z 09008KT 050V140 CAVOK 01/M00 Q0995
  • 150420Z 09008KT 060V130 CAVOK 01/M00 Q0995

TAF TAF EDFH
Valido dal 15 a 06 ore il 16 a 06 ore UTC


150500Z 1506/1606 09009KT 9999 FEW035
BECMG 1509/1512 20005KT
TEMPO 1522/1606 2000 BR BKN005



MetMap, La meteo Aeronautica in un colpo d'occhio ! - Copyright ORBIFLY Dicembre 2007 - Disclaimer

ORBIFLY MET'MAP TEAM :

Programmazione e sviluppo : Alexandra Zaïnal
Concezione e sviluppo : Baudouin d'Aumeries
Co-Programmazione e sviluppo : Marc-Olivier Méhu
Supporto tecnico e logistico : Manuel Goepfert
Aiuto per la traduzione : Arnaldo La Scala

Contatto : metmap@orbifly.com




FONTI E CREDITI :

   NOAA